createdAt,value
2016-12-27T00:00:44.017Z,1016.76
2016-12-27T00:01:43.955Z,1016.92
2016-12-27T00:02:43.891Z,1016.78
2016-12-27T00:03:43.828Z,1016.87
2016-12-27T00:04:43.767Z,1016.78
2016-12-27T00:05:43.705Z,1016.63
2016-12-27T00:06:43.642Z,1016.82
2016-12-27T00:07:43.579Z,1016.84
2016-12-27T00:08:43.516Z,1016.95
2016-12-27T00:09:43.455Z,1016.82
2016-12-27T00:10:43.393Z,1016.9
2016-12-27T00:11:43.329Z,1016.82
2016-12-27T00:12:43.267Z,1017
2016-12-27T00:13:43.204Z,1016.86
2016-12-27T00:14:43.140Z,1017.03
2016-12-27T00:15:43.077Z,1016.94
2016-12-27T00:16:43.016Z,1016.93
2016-12-27T00:17:42.952Z,1017.08
2016-12-27T00:18:42.889Z,1017.01
2016-12-27T00:19:42.829Z,1017.02
2016-12-27T00:20:42.764Z,1017.03
2016-12-27T00:21:42.703Z,1017.12
2016-12-27T00:22:42.638Z,1017.12
2016-12-27T00:23:42.578Z,1017.06
2016-12-27T00:24:42.514Z,1017.07
2016-12-27T00:25:42.451Z,1016.97
2016-12-27T00:26:42.387Z,1017
2016-12-27T00:27:42.325Z,1016.89
2016-12-27T00:28:42.264Z,1016.97
2016-12-27T00:29:42.200Z,1017.01
2016-12-27T00:30:42.137Z,1017.05
2016-12-27T00:31:42.076Z,1017.07
2016-12-27T00:32:42.013Z,1017.03
2016-12-27T00:33:41.948Z,1017.1
2016-12-27T00:34:41.887Z,1017.1
2016-12-27T00:35:41.825Z,1017.11
2016-12-27T00:36:41.761Z,1017.23
2016-12-27T00:37:41.698Z,1017.13
2016-12-27T00:38:41.635Z,1017.09
2016-12-27T00:39:41.573Z,1017.08
2016-12-27T00:40:41.509Z,1017.22
2016-12-27T00:41:41.447Z,1017.08
2016-12-27T00:42:41.393Z,1017.16
2016-12-27T00:43:41.323Z,1017.13
2016-12-27T00:44:41.260Z,1017.18
2016-12-27T00:45:41.199Z,1017.18
2016-12-27T00:46:41.136Z,1017.06
2016-12-27T00:47:41.073Z,1017.23
2016-12-27T00:48:41.009Z,1017.2
2016-12-27T00:49:40.948Z,1017.14
2016-12-27T00:50:40.886Z,1017.09
2016-12-27T00:51:40.821Z,1017.15
2016-12-27T00:52:40.760Z,1017.12
2016-12-27T00:53:40.698Z,1017.1
2016-12-27T00:54:40.634Z,1017.22
2016-12-27T00:55:40.571Z,1017.09
2016-12-27T00:56:40.509Z,1017.12
2016-12-27T00:57:40.448Z,1017.07
2016-12-27T00:58:40.384Z,1017.02
2016-12-27T00:59:40.320Z,1017.07
2016-12-27T01:01:35.925Z,1016.94
2016-12-27T01:02:10.198Z,1017.01
2016-12-27T01:03:10.207Z,1016.96
2016-12-27T01:04:10.060Z,1016.95
2016-12-27T01:05:09.997Z,1016.93
2016-12-27T01:06:09.936Z,1016.98
2016-12-27T01:07:09.874Z,1017.03
2016-12-27T01:08:09.809Z,1017.07
2016-12-27T01:09:09.748Z,1017.07
2016-12-27T01:10:09.685Z,1017.01
2016-12-27T01:11:09.622Z,1017.06
2016-12-27T01:12:09.559Z,1016.99
2016-12-27T01:13:09.497Z,1017.04
2016-12-27T01:14:09.434Z,1017.13
2016-12-27T01:15:09.371Z,1016.92
2016-12-27T01:16:09.309Z,1017.01
2016-12-27T01:17:09.246Z,1017.11
2016-12-27T01:18:09.197Z,1016.97
2016-12-27T01:19:09.121Z,1017.01
2016-12-27T01:20:09.058Z,1016.98
2016-12-27T01:21:08.995Z,1016.94
2016-12-27T01:22:08.933Z,1016.92
2016-12-27T01:23:08.869Z,1017.11
2016-12-27T01:24:08.808Z,1017.18
2016-12-27T01:25:08.746Z,1017.02
2016-12-27T01:26:08.681Z,1017.11
2016-12-27T01:27:08.620Z,1017.2
2016-12-27T01:28:08.564Z,1017.17
2016-12-27T01:29:08.496Z,1017.15
2016-12-27T01:30:08.431Z,1017.14
2016-12-27T01:31:08.370Z,1017.2
2016-12-27T01:32:08.308Z,1017.14
2016-12-27T01:33:08.245Z,1017.17
2016-12-27T01:34:08.182Z,1017.15
2016-12-27T01:35:08.119Z,1016.98
2016-12-27T01:36:08.058Z,1016.96
2016-12-27T01:37:07.994Z,1017
2016-12-27T01:38:07.932Z,1016.89
2016-12-27T01:39:07.869Z,1016.91
2016-12-27T01:40:07.806Z,1016.88
2016-12-27T01:41:07.743Z,1016.77
2016-12-27T01:42:07.682Z,1016.86
2016-12-27T01:43:07.620Z,1016.82
2016-12-27T01:44:07.556Z,1016.83
2016-12-27T01:45:07.496Z,1016.94
2016-12-27T01:46:07.432Z,1017
2016-12-27T01:47:07.371Z,1016.94
2016-12-27T01:48:07.306Z,1016.97
2016-12-27T01:49:07.244Z,1016.83
2016-12-27T01:50:07.181Z,1016.86
2016-12-27T01:51:07.119Z,1016.81
2016-12-27T01:52:07.074Z,1016.77
2016-12-27T01:53:06.992Z,1016.82
2016-12-27T01:54:06.931Z,1016.66
2016-12-27T01:55:06.867Z,1016.65
2016-12-27T01:56:06.809Z,1016.61
2016-12-27T01:57:06.743Z,1016.54
2016-12-27T01:58:06.682Z,1016.55
2016-12-27T01:59:06.617Z,1016.45
2016-12-27T02:00:06.556Z,1016.48
2016-12-27T02:01:06.493Z,1016.49
2016-12-27T02:02:06.430Z,1016.49
2016-12-27T02:03:06.367Z,1016.37
2016-12-27T02:04:06.305Z,1016.47
2016-12-27T02:05:06.243Z,1016.33
2016-12-27T02:06:06.179Z,1016.29
2016-12-27T02:07:06.129Z,1016.47
2016-12-27T02:08:06.054Z,1016.54
2016-12-27T02:09:05.993Z,1016.45
2016-12-27T02:10:05.931Z,1016.34
2016-12-27T02:11:05.867Z,1016.37
2016-12-27T02:12:05.805Z,1016.39
2016-12-27T02:13:05.742Z,1016.37
2016-12-27T02:14:05.679Z,1016.32
2016-12-27T02:15:05.617Z,1016.3
2016-12-27T02:16:05.554Z,1016.26
2016-12-27T02:17:05.497Z,1016.27
2016-12-27T02:18:05.429Z,1016.39
2016-12-27T02:19:05.366Z,1016.39
2016-12-27T02:20:05.304Z,1016.34
2016-12-27T02:21:05.241Z,1016.42
2016-12-27T02:22:05.180Z,1016.4
2016-12-27T02:23:05.117Z,1016.41
2016-12-27T02:24:05.055Z,1016.45
2016-12-27T02:25:04.991Z,1016.33
2016-12-27T02:26:04.929Z,1016.57
2016-12-27T02:27:04.868Z,1016.55
2016-12-27T02:28:04.802Z,1016.45
2016-12-27T02:29:04.740Z,1016.39
2016-12-27T02:30:04.679Z,1016.41
2016-12-27T02:31:04.616Z,1016.31
2016-12-27T02:32:04.556Z,1016.44
2016-12-27T02:33:04.492Z,1016.3
2016-12-27T02:34:04.429Z,1016.33
2016-12-27T02:35:04.366Z,1016.38
2016-12-27T02:36:04.309Z,1016.37
2016-12-27T02:37:04.240Z,1016.42
2016-12-27T02:38:04.179Z,1016.3
2016-12-27T02:39:04.115Z,1016.33
2016-12-27T02:40:04.054Z,1016.23
2016-12-27T02:41:03.992Z,1016.25
2016-12-27T02:42:03.929Z,1016.24
2016-12-27T02:43:03.865Z,1016.32
2016-12-27T02:44:03.803Z,1016.22
2016-12-27T02:45:03.741Z,1016.37
2016-12-27T02:46:03.676Z,1016.42
2016-12-27T02:47:03.614Z,1016.42
2016-12-27T02:48:03.552Z,1016.31
2016-12-27T02:49:03.492Z,1016.3
2016-12-27T02:50:03.425Z,1016.28
2016-12-27T02:51:03.369Z,1016.29
2016-12-27T02:52:03.300Z,1016.32
2016-12-27T02:53:03.240Z,1016.27
2016-12-27T02:54:03.175Z,1016.25
2016-12-27T02:55:03.113Z,1016.13
2016-12-27T02:56:03.052Z,1016.21
2016-12-27T02:57:02.989Z,1016.22
2016-12-27T02:58:02.925Z,1016.25
2016-12-27T02:59:03.064Z,1016.14
2016-12-27T03:00:02.800Z,1016.24
2016-12-27T03:01:02.737Z,1016.14
2016-12-27T03:02:02.673Z,1016.11
2016-12-27T03:03:02.612Z,1016.17
2016-12-27T03:04:02.550Z,1016.05
2016-12-27T03:05:02.487Z,1016.04
2016-12-27T03:06:02.442Z,1016.04
2016-12-27T03:07:02.361Z,1016.14
2016-12-27T03:08:02.298Z,1016.13
2016-12-27T03:09:02.236Z,1016.15
2016-12-27T03:10:02.173Z,1016.3
2016-12-27T03:11:02.111Z,1016.31
2016-12-27T03:12:02.047Z,1016.3
2016-12-27T03:13:01.986Z,1016.3
2016-12-27T03:14:01.923Z,1016.3
2016-12-27T03:15:01.861Z,1016.15
2016-12-27T03:16:01.797Z,1016.27
2016-12-27T03:17:01.941Z,1016.28
2016-12-27T03:18:01.673Z,1016.37
2016-12-27T03:19:01.608Z,1016.34
2016-12-27T03:20:01.546Z,1016.2
2016-12-27T03:21:01.490Z,1016.19
2016-12-27T03:22:01.421Z,1016.15
2016-12-27T03:23:01.358Z,1016.21
2016-12-27T03:24:01.296Z,1016.14
2016-12-27T03:25:01.233Z,1016.21
2016-12-27T03:26:01.171Z,1016.3
2016-12-27T03:27:01.108Z,1016.13
2016-12-27T03:28:01.045Z,1016.09
2016-12-27T03:29:00.982Z,1016.19
2016-12-27T03:30:00.919Z,1016.16
2016-12-27T03:31:00.857Z,1016.15
2016-12-27T03:32:00.795Z,1016.2
2016-12-27T03:33:00.732Z,1016.18
2016-12-27T03:34:00.668Z,1016.01
2016-12-27T03:35:00.606Z,1016.01
2016-12-27T03:36:00.544Z,1016.09
2016-12-27T03:37:00.481Z,1016.04
2016-12-27T03:38:00.424Z,1016.12
2016-12-27T03:39:00.355Z,1016.17
2016-12-27T03:40:00.299Z,1016.11
2016-12-27T03:41:00.230Z,1016.03
2016-12-27T03:42:00.167Z,1015.98
2016-12-27T03:43:00.104Z,1016.12
2016-12-27T03:44:00.042Z,1015.97
2016-12-27T03:44:59.979Z,1015.98
2016-12-27T03:45:59.916Z,1015.99
2016-12-27T03:46:59.853Z,1016.08
2016-12-27T03:47:59.993Z,1016.07
2016-12-27T03:48:59.727Z,1016.02
2016-12-27T03:49:59.665Z,1016.18
2016-12-27T03:50:59.601Z,1016.27
2016-12-27T03:51:59.539Z,1016.1
2016-12-27T03:52:59.476Z,1016.11
2016-12-27T03:53:59.414Z,1016.16
2016-12-27T03:54:59.352Z,1016.31
2016-12-27T03:55:59.289Z,1016.19
2016-12-27T03:56:59.226Z,1016.12
2016-12-27T03:57:59.164Z,1016.18
2016-12-27T03:58:59.101Z,1016.21
2016-12-27T03:59:59.037Z,1016.1
2016-12-27T04:00:58.975Z,1016.01
2016-12-27T04:01:58.912Z,1016.01
2016-12-27T04:02:58.849Z,1016.09
2016-12-27T04:03:58.787Z,1015.99
2016-12-27T04:04:58.724Z,1015.97
2016-12-27T04:05:58.664Z,1015.94
2016-12-27T04:06:58.598Z,1016.07
2016-12-27T04:07:58.536Z,1016.01
2016-12-27T04:08:58.474Z,1015.95
2016-12-27T04:09:58.410Z,1015.97
2016-12-27T04:10:58.349Z,1016.05
2016-12-27T04:11:58.285Z,1016
2016-12-27T04:12:58.225Z,1015.97
2016-12-27T04:13:58.159Z,1015.99
2016-12-27T04:14:58.098Z,1015.95
2016-12-27T04:15:58.036Z,1016.06
2016-12-27T04:16:57.974Z,1016.1
2016-12-27T04:17:57.910Z,1016.07
2016-12-27T04:18:57.855Z,1016.16
2016-12-27T04:19:57.786Z,1016.24
2016-12-27T04:20:57.722Z,1016.2
2016-12-27T04:21:57.660Z,1016.27
2016-12-27T04:22:57.600Z,1016.19
2016-12-27T04:23:57.537Z,1016.12
2016-12-27T04:24:57.473Z,1016.09
2016-12-27T04:25:57.410Z,1015.99
2016-12-27T04:26:57.349Z,1015.91
2016-12-27T04:27:57.287Z,1015.98
2016-12-27T04:28:57.225Z,1016.06
2016-12-27T04:29:57.161Z,1016.11
2016-12-27T04:30:57.101Z,1016.11
2016-12-27T04:31:58.234Z,1016.17
2016-12-27T04:32:56.974Z,1016.06
2016-12-27T04:33:56.912Z,1016.06
2016-12-27T04:34:56.850Z,1016.07
2016-12-27T04:35:56.815Z,1016.09
2016-12-27T04:36:56.725Z,1016.04
2016-12-27T04:37:56.663Z,1016.14
2016-12-27T04:38:56.599Z,1015.99
2016-12-27T04:39:56.537Z,1016.03
2016-12-27T04:40:56.476Z,1015.99
2016-12-27T04:41:56.412Z,1016.1
2016-12-27T04:42:56.349Z,1016.25
2016-12-27T04:43:56.286Z,1016.26
2016-12-27T04:44:56.223Z,1016.4
2016-12-27T04:45:56.163Z,1016.35
2016-12-27T04:46:56.099Z,1016.33
2016-12-27T04:47:56.036Z,1016.44
2016-12-27T04:48:55.975Z,1016.43
2016-12-27T04:49:55.911Z,1016.34
2016-12-27T04:50:55.849Z,1016.3
2016-12-27T04:51:55.786Z,1016.29
2016-12-27T04:52:55.724Z,1016.27
2016-12-27T04:53:55.661Z,1016.27
2016-12-27T04:54:55.598Z,1016.25
2016-12-27T04:55:55.537Z,1016.29
2016-12-27T04:56:55.474Z,1016.19
2016-12-27T04:57:55.410Z,1016.32
2016-12-27T04:58:55.350Z,1016.32
2016-12-27T04:59:55.286Z,1016.13
2016-12-27T05:00:55.223Z,1016.19
2016-12-27T05:02:04.561Z,1016.16
2016-12-27T05:02:55.098Z,1016.23
2016-12-27T05:03:55.036Z,1016.23
2016-12-27T05:04:54.972Z,1016.19
2016-12-27T05:05:54.910Z,1016.26
2016-12-27T05:06:54.847Z,1016.29
2016-12-27T05:07:54.786Z,1016.15
2016-12-27T05:08:54.724Z,1016.27
2016-12-27T05:09:54.659Z,1016.27
2016-12-27T05:10:54.597Z,1016.18
2016-12-27T05:11:54.535Z,1016.32
2016-12-27T05:12:54.471Z,1016.2
2016-12-27T05:13:54.408Z,1016.22
2016-12-27T05:14:54.347Z,1016.21
2016-12-27T05:15:54.283Z,1016.9
2016-12-27T05:16:54.219Z,1016.95
2016-12-27T05:17:54.166Z,1016.65
2016-12-27T05:18:54.104Z,1016.8
2016-12-27T05:19:54.042Z,1016.72
2016-12-27T05:20:53.970Z,1016.78
2016-12-27T05:21:53.908Z,1016.74
2016-12-27T05:22:53.845Z,1016.7
2016-12-27T05:23:53.781Z,1016.7
2016-12-27T05:24:53.719Z,1016.73
2016-12-27T05:25:53.657Z,1016.72
2016-12-27T05:26:53.596Z,1016.8
2016-12-27T05:27:53.541Z,1016.78
2016-12-27T05:28:53.469Z,1016.72
2016-12-27T05:29:53.414Z,1016.91
2016-12-27T05:30:53.363Z,1016.74
2016-12-27T05:31:53.291Z,1016.64
2016-12-27T05:32:53.218Z,1016.6
2016-12-27T05:33:53.159Z,1016.73
2016-12-27T05:34:53.101Z,1016.75
2016-12-27T05:35:53.030Z,1016.7
2016-12-27T05:36:52.968Z,1016.63
2016-12-27T05:37:52.913Z,1016.77
2016-12-27T05:38:52.852Z,1016.8
2016-12-27T05:39:52.779Z,1016.67
2016-12-27T05:40:52.724Z,1016.74
2016-12-27T05:41:52.662Z,1016.49
2016-12-27T05:42:52.591Z,1016.58
2016-12-27T05:43:52.528Z,1016.54
2016-12-27T05:44:52.601Z,1016.6
2016-12-27T05:45:52.407Z,1016.69
2016-12-27T05:46:52.351Z,1016.61
2016-12-27T05:47:52.279Z,1016.76
2016-12-27T05:48:52.216Z,1016.67
2016-12-27T05:49:52.162Z,1016.65
2016-12-27T05:50:52.090Z,1016.62
2016-12-27T05:51:52.028Z,1016.79
2016-12-27T05:52:51.973Z,1016.78
2016-12-27T05:53:51.911Z,1016.87
2016-12-27T05:54:51.840Z,1016.83
2016-12-27T05:55:51.785Z,1016.84
2016-12-27T05:56:51.715Z,1016.94
2016-12-27T05:57:51.651Z,1016.85
2016-12-27T05:58:51.589Z,1016.99
2016-12-27T05:59:51.534Z,1016.91
2016-12-27T06:00:51.474Z,1017
2016-12-27T06:01:51.411Z,1016.95
2016-12-27T06:02:51.339Z,1017.03
2016-12-27T06:03:51.275Z,1016.84
2016-12-27T06:04:51.223Z,1016.92
2016-12-27T06:05:51.162Z,1017
2016-12-27T06:06:51.088Z,1017.02
2016-12-27T06:07:51.035Z,1017.01
2016-12-27T06:08:50.973Z,1017.23
2016-12-27T06:09:50.900Z,1016.99
2016-12-27T06:10:50.837Z,1016.93
2016-12-27T06:11:50.774Z,1017.08
2016-12-27T06:12:50.714Z,1017.22
2016-12-27T06:13:50.650Z,1017.02
2016-12-27T06:14:50.588Z,1017.11
2016-12-27T06:15:50.525Z,1017.22
2016-12-27T06:16:50.462Z,1017.1
2016-12-27T06:17:50.400Z,1017.2
2016-12-27T06:18:50.336Z,1017.28
2016-12-27T06:19:50.275Z,1017.29
2016-12-27T06:20:50.213Z,1017.4
2016-12-27T06:21:50.150Z,1017.47
2016-12-27T06:22:50.087Z,1017.63
2016-12-27T06:23:50.025Z,1017.6
2016-12-27T06:24:49.962Z,1017.53
2016-12-27T06:25:49.899Z,1017.62
2016-12-27T06:26:49.837Z,1017.42
2016-12-27T06:27:49.780Z,1017.47
2016-12-27T06:28:49.711Z,1017.39
2016-12-27T06:29:49.650Z,1017.36
2016-12-27T06:30:49.588Z,1017.39
2016-12-27T06:31:49.525Z,1017.34
2016-12-27T06:32:49.462Z,1017.39
2016-12-27T06:33:49.399Z,1017.3
2016-12-27T06:34:49.337Z,1017.41
2016-12-27T06:35:49.275Z,1017.41
2016-12-27T06:36:49.212Z,1017.46
2016-12-27T06:37:49.150Z,1017.39
2016-12-27T06:38:49.087Z,1017.46
2016-12-27T06:39:49.024Z,1017.5
2016-12-27T06:40:48.961Z,1017.44
2016-12-27T06:41:48.899Z,1017.39
2016-12-27T06:42:48.838Z,1017.39
2016-12-27T06:43:48.773Z,1017.37
2016-12-27T06:44:48.710Z,1017.37
2016-12-27T06:45:48.648Z,1017.35
2016-12-27T06:46:48.586Z,1017.42
2016-12-27T06:47:48.523Z,1017.45
2016-12-27T06:48:48.460Z,1017.48
2016-12-27T06:49:48.398Z,1017.54
2016-12-27T06:50:48.335Z,1017.47
2016-12-27T06:51:48.273Z,1017.46
2016-12-27T06:52:48.210Z,1017.5
2016-12-27T06:53:48.148Z,1017.38
2016-12-27T06:54:48.084Z,1017.42
2016-12-27T06:55:48.022Z,1017.42
2016-12-27T06:56:47.959Z,1017.51
2016-12-27T06:57:47.897Z,1017.49
2016-12-27T06:58:47.843Z,1017.47
2016-12-27T06:59:47.771Z,1017.49
2016-12-27T07:00:47.707Z,1017.56
2016-12-27T07:01:47.644Z,1017.5
2016-12-27T07:02:47.582Z,1017.6
2016-12-27T07:03:47.521Z,1017.61
2016-12-27T07:04:47.457Z,1017.69
2016-12-27T07:05:47.393Z,1017.71
2016-12-27T07:06:47.331Z,1017.76
2016-12-27T07:07:47.268Z,1017.9
2016-12-27T07:08:47.206Z,1017.86
2016-12-27T07:09:47.143Z,1017.85
2016-12-27T07:10:47.080Z,1017.87
2016-12-27T07:11:47.017Z,1017.93
2016-12-27T07:12:46.954Z,1017.9
2016-12-27T07:13:46.892Z,1017.82
2016-12-27T07:14:46.829Z,1017.85
2016-12-27T07:15:46.767Z,1017.93
2016-12-27T07:16:46.703Z,1017.9
2016-12-27T07:17:46.640Z,1017.85
2016-12-27T07:18:46.578Z,1017.92
2016-12-27T07:19:46.514Z,1017.95
2016-12-27T07:20:46.461Z,1017.94
2016-12-27T07:21:46.391Z,1017.99
2016-12-27T07:22:46.329Z,1018
2016-12-27T07:23:46.263Z,1018.03
2016-12-27T07:24:46.203Z,1018.18
2016-12-27T07:25:46.139Z,1018.14
2016-12-27T07:26:46.078Z,1018.16
2016-12-27T07:27:46.014Z,1018.18
2016-12-27T07:28:45.951Z,1018.26
2016-12-27T07:29:45.889Z,1018.28
2016-12-27T07:30:45.825Z,1018.17
2016-12-27T07:31:45.763Z,1018.13
2016-12-27T07:32:45.701Z,1018.15
2016-12-27T07:33:45.639Z,1018.28
2016-12-27T07:34:45.574Z,1018.25
2016-12-27T07:35:45.512Z,1018.19
2016-12-27T07:36:45.452Z,1018.22
2016-12-27T07:37:45.387Z,1018.34
2016-12-27T07:38:45.324Z,1018.3
2016-12-27T07:39:45.262Z,1018.38
2016-12-27T07:40:45.203Z,1018.28
2016-12-27T07:41:45.136Z,1018.31
2016-12-27T07:42:45.073Z,1018.25
2016-12-27T07:43:45.010Z,1018.38
2016-12-27T07:44:44.949Z,1018.25
2016-12-27T07:45:44.885Z,1018.34
2016-12-27T07:46:44.823Z,1018.42
2016-12-27T07:47:44.760Z,1018.35
2016-12-27T07:48:44.698Z,1018.33
2016-12-27T07:49:44.644Z,1018.39
2016-12-27T07:50:44.572Z,1018.27
2016-12-27T07:51:44.509Z,1018.26
2016-12-27T07:52:44.446Z,1018.19
2016-12-27T07:53:44.383Z,1018.22
2016-12-27T07:54:44.320Z,1018.15
2016-12-27T07:55:44.259Z,1018.22
2016-12-27T07:56:44.195Z,1018.3
2016-12-27T07:57:44.133Z,1018.27
2016-12-27T07:58:44.071Z,1018.18
2016-12-27T07:59:44.008Z,1018.11
2016-12-27T08:00:43.945Z,1018.14
2016-12-27T08:01:43.882Z,1018.15
2016-12-27T08:02:43.820Z,1018.26
2016-12-27T08:03:43.779Z,1018.13
2016-12-27T08:04:43.693Z,1018.12
2016-12-27T08:05:43.631Z,1018.09
2016-12-27T08:06:43.569Z,1018.11
2016-12-27T08:07:43.505Z,1018.14
2016-12-27T08:08:43.450Z,1018.16
2016-12-27T08:09:43.380Z,1018.12
2016-12-27T08:10:43.317Z,1018.27
2016-12-27T08:11:43.256Z,1018.08
2016-12-27T08:12:43.192Z,1018.2
2016-12-27T08:13:43.135Z,1018.27
2016-12-27T08:14:43.066Z,1018.22
2016-12-27T08:15:43.004Z,1018.33
2016-12-27T08:16:42.940Z,1018.29
2016-12-27T08:17:42.879Z,1018.39
2016-12-27T08:18:42.815Z,1018.4
2016-12-27T08:19:42.751Z,1018.42
2016-12-27T08:20:42.691Z,1018.41
2016-12-27T08:21:42.627Z,1018.44
2016-12-27T08:22:42.565Z,1018.36
2016-12-27T08:23:42.502Z,1018.28
2016-12-27T08:24:42.439Z,1018.37
2016-12-27T08:25:42.375Z,1018.32
2016-12-27T08:26:42.313Z,1018.36
2016-12-27T08:27:42.250Z,1018.39
2016-12-27T08:28:42.189Z,1018.46
2016-12-27T08:29:42.127Z,1018.41
2016-12-27T08:30:42.063Z,1018.4
2016-12-27T08:31:42.000Z,1018.44
2016-12-27T08:32:41.947Z,1018.41
2016-12-27T08:33:41.882Z,1018.38
2016-12-27T08:34:41.812Z,1018.47
2016-12-27T08:35:41.751Z,1018.47
2016-12-27T08:36:41.687Z,1018.56
2016-12-27T08:37:41.624Z,1018.54
2016-12-27T08:38:41.561Z,1018.64
2016-12-27T08:39:41.500Z,1018.73
2016-12-27T08:40:41.435Z,1018.64
2016-12-27T08:41:41.372Z,1018.71
2016-12-27T08:42:41.317Z,1018.73
2016-12-27T08:43:41.248Z,1018.77
2016-12-27T08:44:41.186Z,1018.76
2016-12-27T08:45:41.123Z,1018.78
2016-12-27T08:46:41.060Z,1018.84
2016-12-27T08:47:41.003Z,1018.89
2016-12-27T08:48:40.935Z,1018.9
2016-12-27T08:49:40.872Z,1018.78
2016-12-27T08:50:40.809Z,1018.78
2016-12-27T08:51:40.747Z,1018.87
2016-12-27T08:52:40.687Z,1018.87
2016-12-27T08:53:40.621Z,1018.89
2016-12-27T08:54:40.559Z,1018.95
2016-12-27T08:55:40.497Z,1019.05
2016-12-27T08:56:40.434Z,1019.14
2016-12-27T08:57:40.372Z,1019.2
2016-12-27T08:58:40.309Z,1019.22
2016-12-27T08:59:40.246Z,1019.18
2016-12-27T09:00:40.282Z,1019.08
2016-12-27T09:01:40.121Z,1019.13
2016-12-27T09:02:52.171Z,1019.2
2016-12-27T09:03:39.996Z,1019.17
2016-12-27T09:04:39.933Z,1019.15
2016-12-27T09:05:39.870Z,1019.12
2016-12-27T09:06:39.808Z,1019.19
2016-12-27T09:07:39.746Z,1019.2
2016-12-27T09:08:39.683Z,1019.18
2016-12-27T09:09:39.621Z,1019.24
2016-12-27T09:10:39.556Z,1019.25
2016-12-27T09:11:39.494Z,1019.29
2016-12-27T09:12:39.437Z,1019.23
2016-12-27T09:13:39.369Z,1019.23
2016-12-27T09:14:39.305Z,1019.18
2016-12-27T09:15:39.243Z,1019.25
2016-12-27T09:16:39.180Z,1019.31
2016-12-27T09:17:39.117Z,1019.21
2016-12-27T09:18:39.055Z,1019.34
2016-12-27T09:19:38.992Z,1019.37
2016-12-27T09:20:38.929Z,1019.36
2016-12-27T09:21:38.867Z,1019.27
2016-12-27T09:22:38.803Z,1019.35
2016-12-27T09:23:38.742Z,1019.32
2016-12-27T09:24:38.678Z,1019.26
2016-12-27T09:25:38.617Z,1019.24
2016-12-27T09:26:38.554Z,1019.38
2016-12-27T09:27:38.490Z,1019.44
2016-12-27T09:28:38.428Z,1019.48
2016-12-27T09:29:38.365Z,1019.59
2016-12-27T09:30:38.301Z,1019.52
2016-12-27T09:31:38.239Z,1019.53
2016-12-27T09:32:38.185Z,1019.63
2016-12-27T09:33:38.114Z,1019.62
2016-12-27T09:34:38.056Z,1019.62
2016-12-27T09:35:37.989Z,1019.57
2016-12-27T09:36:37.926Z,1019.65
2016-12-27T09:37:37.863Z,1019.67
2016-12-27T09:38:37.800Z,1019.67
2016-12-27T09:39:37.737Z,1019.65
2016-12-27T09:40:37.681Z,1019.78
2016-12-27T09:41:37.612Z,1019.72
2016-12-27T09:42:37.548Z,1019.82
2016-12-27T09:43:37.486Z,1019.79
2016-12-27T09:44:37.436Z,1019.82
2016-12-27T09:45:37.360Z,1019.84
2016-12-27T09:46:37.298Z,1019.85
2016-12-27T09:47:37.235Z,1019.85
2016-12-27T09:48:37.177Z,1019.85
2016-12-27T09:49:37.122Z,1019.9
2016-12-27T09:50:37.046Z,1019.93
2016-12-27T09:51:36.984Z,1020.01
2016-12-27T09:52:36.926Z,1019.99
2016-12-27T09:53:36.859Z,1020.02
2016-12-27T09:54:36.798Z,1020
2016-12-27T09:55:36.736Z,1020.2
2016-12-27T09:56:36.674Z,1020.13
2016-12-27T09:57:36.619Z,1020.33
2016-12-27T09:58:36.749Z,1020.24
2016-12-27T09:59:36.483Z,1020.23
2016-12-27T10:00:36.421Z,1020.17
2016-12-27T10:01:36.369Z,1020.28
2016-12-27T10:02:36.296Z,1020.32
2016-12-27T10:03:36.232Z,1020.24
2016-12-27T10:04:36.169Z,1020.22
2016-12-27T10:05:36.107Z,1020.18
2016-12-27T10:06:36.044Z,1020.25
2016-12-27T10:07:35.981Z,1020.21
2016-12-27T10:08:35.919Z,1020.23
2016-12-27T10:09:35.927Z,1020.32
2016-12-27T10:10:35.822Z,1020.29
2016-12-27T10:11:35.730Z,1020.32
2016-12-27T10:12:35.669Z,1020.39
2016-12-27T10:13:35.605Z,1020.55
2016-12-27T10:14:35.543Z,1020.44
2016-12-27T10:15:35.482Z,1020.31
2016-12-27T10:16:35.416Z,1020.45
2016-12-27T10:17:35.354Z,1020.46
2016-12-27T10:18:35.310Z,1020.46
2016-12-27T10:19:35.228Z,1020.5
2016-12-27T10:20:35.170Z,1020.53
2016-12-27T10:21:35.226Z,1020.52
2016-12-27T10:22:35.112Z,1020.51
2016-12-27T10:23:35.022Z,1020.51
2016-12-27T10:24:34.945Z,1020.65
2016-12-27T10:25:34.852Z,1020.67
2016-12-27T10:26:34.804Z,1020.71
2016-12-27T10:27:34.726Z,1020.67
2016-12-27T10:28:34.872Z,1020.76
2016-12-27T10:29:34.647Z,1020.87
2016-12-27T10:30:34.546Z,1020.89
2016-12-27T10:31:34.580Z,1020.83
2016-12-27T10:32:34.413Z,1020.95
2016-12-27T10:33:34.350Z,1020.94
2016-12-27T10:34:34.287Z,1021.35
2016-12-27T10:35:34.224Z,1021.04
2016-12-27T10:36:34.163Z,1020.99
2016-12-27T10:37:34.117Z,1021
2016-12-27T10:38:34.036Z,1021.03
2016-12-27T10:39:33.974Z,1021.03
2016-12-27T10:40:33.911Z,1020.98
2016-12-27T10:41:33.871Z,1021.06
2016-12-27T10:42:33.785Z,1020.97
2016-12-27T10:43:33.726Z,1021.01
2016-12-27T10:44:33.659Z,1021.02
2016-12-27T10:45:33.597Z,1021.06
2016-12-27T10:46:33.534Z,1020.97
2016-12-27T10:47:33.472Z,1021.11
2016-12-27T10:48:33.408Z,1021.03
2016-12-27T10:49:33.345Z,1021
2016-12-27T10:50:33.285Z,1021.1
2016-12-27T10:51:33.222Z,1021.06
2016-12-27T10:52:33.156Z,1021.07
2016-12-27T10:53:33.094Z,1021.19
2016-12-27T10:54:33.048Z,1021.21
2016-12-27T10:55:32.968Z,1021.22
2016-12-27T10:56:32.904Z,1021.24
2016-12-27T10:57:32.844Z,1021.31
2016-12-27T10:58:32.786Z,1021.23
2016-12-27T10:59:32.717Z,1021.3
2016-12-27T11:00:32.653Z,1021.45
2016-12-27T11:01:32.592Z,1021.35
2016-12-27T11:02:32.528Z,1021.29
2016-12-27T11:03:32.465Z,1021.49
2016-12-27T11:04:32.402Z,1021.39
2016-12-27T11:05:32.340Z,1021.53
2016-12-27T11:06:32.280Z,1021.43
2016-12-27T11:07:32.213Z,1021.53
2016-12-27T11:08:32.154Z,1021.59
2016-12-27T11:09:32.089Z,1021.58
2016-12-27T11:10:32.025Z,1021.49
2016-12-27T11:11:31.965Z,1021.52
2016-12-27T11:12:31.899Z,1021.43
2016-12-27T11:13:31.839Z,1021.51
2016-12-27T11:14:31.772Z,1021.66
2016-12-27T11:15:31.762Z,1021.64
2016-12-27T11:16:31.648Z,1021.57
2016-12-27T11:17:31.587Z,1021.54
2016-12-27T11:18:31.528Z,1021.6
2016-12-27T11:19:31.503Z,1021.72
2016-12-27T11:20:31.396Z,1021.77
2016-12-27T11:21:31.332Z,1021.76
2016-12-27T11:22:31.269Z,1021.79
2016-12-27T11:23:31.213Z,1021.69
2016-12-27T11:24:31.143Z,1021.72
2016-12-27T11:25:31.086Z,1021.71
2016-12-27T11:26:31.020Z,1021.81
2016-12-27T11:27:30.957Z,1021.82
2016-12-27T11:28:30.891Z,1021.85
2016-12-27T11:29:30.828Z,1021.93
2016-12-27T11:30:30.772Z,1021.88
2016-12-27T11:31:30.705Z,1022
2016-12-27T11:32:30.653Z,1022.02
2016-12-27T11:33:30.596Z,1022.1
2016-12-27T11:34:30.514Z,1022.1
2016-12-27T11:35:30.451Z,1022.01
2016-12-27T11:36:30.388Z,1022
2016-12-27T11:37:30.326Z,1021.94
2016-12-27T11:38:30.269Z,1022.08
2016-12-27T11:39:30.200Z,1022.26
2016-12-27T11:40:30.138Z,1022.25
2016-12-27T11:41:30.086Z,1022.36
2016-12-27T11:42:30.050Z,1022.41
2016-12-27T11:43:29.959Z,1022.38
2016-12-27T11:44:29.886Z,1022.49
2016-12-27T11:45:29.824Z,1022.49
2016-12-27T11:46:29.777Z,1022.56
2016-12-27T11:47:29.700Z,1022.56
2016-12-27T11:48:29.654Z,1022.68
2016-12-27T11:49:29.581Z,1022.52
2016-12-27T11:50:29.512Z,1022.47
2016-12-27T11:51:29.447Z,1022.54
2016-12-27T11:52:29.408Z,1022.49
2016-12-27T11:53:29.559Z,1022.49
2016-12-27T11:54:29.258Z,1022.58
2016-12-27T11:55:29.240Z,1022.59
2016-12-27T11:56:29.151Z,1022.48
2016-12-27T11:57:29.072Z,1022.4
2016-12-27T11:58:29.011Z,1022.34
2016-12-27T11:59:28.945Z,1022.43
2016-12-27T12:00:28.941Z,1022.42
2016-12-27T12:01:28.820Z,1022.5
2016-12-27T12:02:28.756Z,1022.52
2016-12-27T12:03:28.696Z,1022.45
2016-12-27T12:04:28.638Z,1022.51
2016-12-27T12:05:28.569Z,1022.56
2016-12-27T12:06:28.547Z,1022.56
2016-12-27T12:07:28.470Z,1022.49
2016-12-27T12:08:28.388Z,1022.48
2016-12-27T12:09:28.325Z,1022.5